createdAt,value
2022-11-12T00:03:03.474Z,92.27
2022-11-12T00:08:35.235Z,92.29
2022-11-12T00:14:06.849Z,91.76
2022-11-12T00:19:38.243Z,91.87
2022-11-12T00:25:09.684Z,92.05
2022-11-12T00:30:41.450Z,92.17
2022-11-12T00:41:42.823Z,92.42
2022-11-12T00:47:14.477Z,91.52
2022-11-12T00:52:46.422Z,92.62
2022-11-12T00:58:18.122Z,91.74
2022-11-12T01:03:49.872Z,92.04
2022-11-12T01:09:21.616Z,93.00
2022-11-12T01:14:53.067Z,93.07
2022-11-12T01:20:24.915Z,93.05
2022-11-12T01:25:56.726Z,92.33
2022-11-12T01:31:28.290Z,92.56
2022-11-12T01:37:00.047Z,92.68
2022-11-12T01:42:31.799Z,92.50
2022-11-12T01:48:03.540Z,92.66
2022-11-12T01:53:35.644Z,92.65
2022-11-12T01:59:07.708Z,92.71
2022-11-12T02:04:39.317Z,92.79
2022-11-12T02:10:11.287Z,92.39
2022-11-12T02:15:43.014Z,92.36
2022-11-12T02:21:14.819Z,92.09
2022-11-12T02:26:46.192Z,91.55
2022-11-12T02:32:17.815Z,92.23
2022-11-12T02:37:49.511Z,92.09
2022-11-12T02:43:21.288Z,91.92
2022-11-12T02:48:53.442Z,92.01
2022-11-12T02:54:25.561Z,91.92
2022-11-12T02:59:57.199Z,91.86
2022-11-12T03:05:28.825Z,91.90
2022-11-12T03:11:00.654Z,91.72
2022-11-12T03:16:32.552Z,91.82
2022-11-12T03:22:04.819Z,91.85
2022-11-12T03:27:36.721Z,91.58
2022-11-12T03:33:08.495Z,91.44
2022-11-12T03:38:40.382Z,91.29
2022-11-12T03:44:12.021Z,91.31
2022-11-12T03:49:43.830Z,91.35
2022-11-12T03:55:15.557Z,91.50
2022-11-12T04:00:47.412Z,91.60
2022-11-12T04:06:19.114Z,91.80
2022-11-12T04:11:51.019Z,91.53
2022-11-12T04:17:22.798Z,91.09
2022-11-12T04:22:54.498Z,90.76
2022-11-12T04:25:18.327Z,90.80
2022-11-12T04:30:50.080Z,91.20
2022-11-12T04:36:21.429Z,91.24
2022-11-12T04:41:53.146Z,91.36
2022-11-12T04:47:24.672Z,91.26
2022-11-12T04:52:56.189Z,91.19
2022-11-12T04:58:27.796Z,90.48
2022-11-12T05:03:59.551Z,91.20
2022-11-12T05:09:31.344Z,91.61
2022-11-12T05:15:03.142Z,92.13
2022-11-12T05:20:34.682Z,92.18
2022-11-12T05:26:06.250Z,92.13
2022-11-12T05:31:37.896Z,92.23
2022-11-12T05:37:09.797Z,91.78
2022-11-12T05:42:41.543Z,91.53
2022-11-12T05:48:13.185Z,91.54
2022-11-12T05:53:44.922Z,91.54
2022-11-12T05:59:16.598Z,91.38
2022-11-12T06:04:48.366Z,91.46
2022-11-12T06:10:20.763Z,91.47
2022-11-12T06:15:51.926Z,91.43
2022-11-12T06:21:23.683Z,91.18
2022-11-12T06:26:55.506Z,91.14
2022-11-12T06:32:27.330Z,91.35
2022-11-12T06:40:19.688Z,91.51
2022-11-12T06:45:50.395Z,91.67
2022-11-12T06:51:21.600Z,91.66
2022-11-12T06:56:53.501Z,91.61
2022-11-12T07:02:25.330Z,91.52
2022-11-12T07:07:57.303Z,91.64
2022-11-12T07:13:29.127Z,91.77
2022-11-12T07:19:00.733Z,91.65
2022-11-12T07:24:32.630Z,91.46
2022-11-12T07:30:04.464Z,91.45
2022-11-12T07:35:36.401Z,90.66
2022-11-12T07:41:07.927Z,90.44
2022-11-12T07:46:39.691Z,90.00
2022-11-12T07:52:11.215Z,89.96
2022-11-12T07:57:43.218Z,89.69
2022-11-12T08:03:14.837Z,89.75
2022-11-12T08:08:46.671Z,90.25
2022-11-12T08:14:18.643Z,90.19
2022-11-12T08:19:50.280Z,89.83
2022-11-12T08:25:22.157Z,89.71
2022-11-12T08:30:53.924Z,89.35
2022-11-12T08:36:25.817Z,89.12
2022-11-12T08:41:57.529Z,89.19
2022-11-12T08:47:29.353Z,88.94
2022-11-12T08:53:01.158Z,88.22
2022-11-12T08:58:33.100Z,88.07
2022-11-12T09:04:04.940Z,87.47
2022-11-12T09:09:36.822Z,86.35
2022-11-12T09:15:36.993Z,86.96
2022-11-12T09:20:39.911Z,86.92
2022-11-12T09:26:12.069Z,86.72
2022-11-12T09:31:43.510Z,86.39
2022-11-12T09:37:15.541Z,85.35
2022-11-12T09:42:47.573Z,86.28
2022-11-12T09:48:19.697Z,86.51
2022-11-12T09:53:51.502Z,86.78
2022-11-12T09:59:23.339Z,86.16
2022-11-12T10:04:55.343Z,85.90
2022-11-12T10:10:27.179Z,85.03
2022-11-12T10:15:59.154Z,83.36
2022-11-12T10:21:30.956Z,84.55
2022-11-12T10:27:02.661Z,85.46
2022-11-12T10:32:34.488Z,85.01
2022-11-12T10:38:06.221Z,84.56
2022-11-12T10:43:43.729Z,85.61
2022-11-12T10:49:15.588Z,83.93
2022-11-12T10:54:52.395Z,84.77
2022-11-12T11:00:19.115Z,84.18
2022-11-12T11:05:51.095Z,83.92
2022-11-12T11:11:22.638Z,83.57
2022-11-12T11:16:54.650Z,83.79
2022-11-12T11:24:46.895Z,82.52
2022-11-12T11:30:17.810Z,81.40
2022-11-12T11:35:49.526Z,81.93
2022-11-12T11:41:21.313Z,82.78
2022-11-12T11:46:53.104Z,82.29
2022-11-12T11:52:24.901Z,85.59
2022-11-12T12:03:30.408Z,82.50
2022-11-12T12:08:58.224Z,82.03
2022-11-12T12:14:29.929Z,85.93
2022-11-12T12:20:01.715Z,82.33
2022-11-12T12:33:22.771Z,85.56
2022-11-12T12:38:54.736Z,87.30
2022-11-12T12:44:26.490Z,83.88
2022-11-12T12:49:58.449Z,84.57
2022-11-12T12:55:29.995Z,83.19
2022-11-12T13:01:01.898Z,84.87
2022-11-12T13:06:33.712Z,87.11
2022-11-12T13:12:05.599Z,86.54
2022-11-12T13:17:37.666Z,86.32
2022-11-12T13:23:09.463Z,84.09
2022-11-12T13:28:40.843Z,86.82
2022-11-12T13:34:12.950Z,88.59
2022-11-12T13:39:44.682Z,88.24
2022-11-12T13:45:16.362Z,88.47
2022-11-12T13:50:48.279Z,88.31
2022-11-12T13:56:20.392Z,88.95
2022-11-12T14:01:52.300Z,87.89
2022-11-12T14:07:24.317Z,88.91
2022-11-12T14:12:56.283Z,88.17
2022-11-12T14:18:28.464Z,89.67
2022-11-12T14:23:59.739Z,86.60
2022-11-12T14:29:35.275Z,88.00
2022-11-12T14:35:03.194Z,88.42
2022-11-12T14:40:34.931Z,89.54
2022-11-12T14:46:06.815Z,89.33
2022-11-12T14:51:38.533Z,91.17
2022-11-12T14:57:10.400Z,90.68
2022-11-12T15:02:55.679Z,89.33
2022-11-12T15:08:13.791Z,91.82
2022-11-12T15:13:45.691Z,87.03
2022-11-12T15:19:17.474Z,91.43
2022-11-12T15:24:49.197Z,89.08
2022-11-12T15:30:20.623Z,89.32
2022-11-12T15:35:52.547Z,90.17
2022-11-12T15:41:24.773Z,89.37
2022-11-12T15:46:56.657Z,86.90
2022-11-12T15:52:28.314Z,87.26
2022-11-12T15:58:00.257Z,87.95
2022-11-12T16:03:31.879Z,89.56
2022-11-12T16:09:03.730Z,90.14
2022-11-12T16:14:35.811Z,88.81
2022-11-12T16:20:07.435Z,90.55
2022-11-12T16:25:38.902Z,92.62
2022-11-12T16:31:11.056Z,94.42
2022-11-12T16:36:42.788Z,92.24
2022-11-12T16:47:44.094Z,91.90
2022-11-12T16:53:15.638Z,94.28
2022-11-12T16:58:47.074Z,93.97
2022-11-12T17:04:19.098Z,94.43
2022-11-12T17:09:51.020Z,92.35
2022-11-12T17:20:51.976Z,95.09
2022-11-12T17:26:23.943Z,93.58
2022-11-12T17:31:55.872Z,91.17
2022-11-12T17:37:27.719Z,91.91
2022-11-12T17:42:59.550Z,90.69
2022-11-12T17:48:31.462Z,91.55
2022-11-12T17:54:03.154Z,91.96
2022-11-12T17:59:34.937Z,91.35
2022-11-12T18:05:06.839Z,92.36
2022-11-12T18:10:38.551Z,92.60
2022-11-12T18:16:14.452Z,94.40
2022-11-12T18:21:42.265Z,94.15
2022-11-12T18:27:14.170Z,94.31
2022-11-12T18:32:45.977Z,92.85
2022-11-12T18:38:17.587Z,92.86
2022-11-12T18:43:49.342Z,92.02
2022-11-12T18:49:21.531Z,90.83
2022-11-12T18:54:53.780Z,90.56
2022-11-12T19:00:25.491Z,93.54
2022-11-12T19:05:57.080Z,95.03
2022-11-12T19:11:28.967Z,94.84
2022-11-12T19:17:00.845Z,95.22
2022-11-12T19:22:32.736Z,92.76
2022-11-12T19:33:33.949Z,92.21
2022-11-12T19:39:06.120Z,91.65
2022-11-12T19:44:38.180Z,92.24
2022-11-12T19:55:40.041Z,90.34
2022-11-12T20:01:11.353Z,93.03
2022-11-12T20:06:42.878Z,93.42
2022-11-12T20:12:14.978Z,93.48
2022-11-12T20:17:46.907Z,92.75
2022-11-12T20:23:18.554Z,92.73
2022-11-12T20:28:50.337Z,94.48
2022-11-12T20:34:22.053Z,94.93
2022-11-12T20:39:53.974Z,94.26
2022-11-12T20:45:25.775Z,94.50
2022-11-12T20:51:22.104Z,94.93
2022-11-12T20:56:29.484Z,92.73
2022-11-12T21:02:01.179Z,94.14
2022-11-12T21:07:32.983Z,94.92
2022-11-12T21:13:05.113Z,94.83
2022-11-12T21:18:36.710Z,95.56
2022-11-12T21:24:08.712Z,96.11
2022-11-12T21:29:40.493Z,94.42
2022-11-12T21:35:12.569Z,94.89
2022-11-12T21:37:35.892Z,94.56
2022-11-12T21:43:07.659Z,92.59
2022-11-12T21:48:39.640Z,92.84
2022-11-12T21:54:11.197Z,94.51
2022-11-12T21:59:42.966Z,94.96
2022-11-12T22:05:15.074Z,94.76
2022-11-12T22:10:46.559Z,93.95
2022-11-12T22:16:18.475Z,93.60
2022-11-12T22:21:50.057Z,94.14
2022-11-12T22:27:21.701Z,93.02
2022-11-12T22:32:53.510Z,93.55
2022-11-12T22:38:25.375Z,94.45
2022-11-12T22:43:56.878Z,92.39
2022-11-12T22:49:28.449Z,93.81
2022-11-12T22:55:00.388Z,95.33
2022-11-12T23:00:32.193Z,96.16
2022-11-12T23:06:04.107Z,95.69
2022-11-12T23:11:35.704Z,95.45
2022-11-12T23:17:07.511Z,95.68
2022-11-12T23:22:39.266Z,95.74
2022-11-12T23:28:10.859Z,96.20
2022-11-12T23:33:42.908Z,95.50
2022-11-12T23:39:14.556Z,95.58
2022-11-12T23:44:46.255Z,95.93
2022-11-12T23:50:18.014Z,93.65
2022-11-12T23:55:49.822Z,95.31
